Mirabile, Missouri
Current Conditions -  °F | °C
As of 11:35 PM on Wednesday 26 Nov 2014 (Local Time) from KGPH Reporting Station
Overcast Overcast  
Wind Chill: 21°   Ceiling: 1700
Heat Index: 30°   Visibility: 10mi
Dew Point: 23°   Wind: 10mph
Humidity: 75%   Direction: 320°NW
Pressure: 30.4"   Gusts: 23mph
Location:  39.5693°N, 94.0956°W
Report Text: KGPH 270535Z AUTO 32009G20KT 10SM OVC017 M01/M05 A3040 RMK AO2
Loading
Personal Weather Stations






























Interactive Weather Map New forecast layout! Learn more

10-Day Weather Forecast

Advertisements
Track Severe Weather on mobile